aviador You're here:

SAZM Decoded Metar

MAR DEL PLATA in ARGENTINA
Report Time2018-06-23 05:00:00
UTC Time2018-06-23 06:04:01
Flight Rules vfr VFR
Wind320° at 12 kt
W.Decomp.*RWY 31: 11.5 kt HW 3.3 kt RCW
W.Rank320° ranks 1
Current wind is above 320° avg. (7.9)
Visibility9999 m
Phenomena:N/A
Clouds:N/A
Expected CloudBase > 1,200 ft AGL from Temp-Dew spread
CeilingNone
Temp06°C (ISA -9)
Dew Point03°C (81% RH)
AAT0.2°C
QNH1006 hPa
Density Alt-656 ft
Elevation69 ft
Report Wrong Elevation
Raw Report
METAR SAZM 230500Z 32012KT CAVOK 06/03 Q1006=

Extra information for SAZM:More info

Metar Taf Metar & Taf Last 4 Metars F.Rules Stats Wind Profile Meteogram Temp Stats Airport Information Weather charts Add Link Nearby VenuesMetar ALERT Operation Metar Decoded Social comments